sensor_id;sensor_type;location;lat;lon;timestamp;P1;durP1;ratioP1;P2;durP2;ratioP2
10831;SDS011;5469;48.574;8.768;2022-11-20T00:00:56;1.37;;;0.93;;
10831;SDS011;5469;48.574;8.768;2022-11-20T00:03:36;0.60;;;0.60;;
10831;SDS011;5469;48.574;8.768;2022-11-20T00:06:12;1.57;;;0.90;;
10831;SDS011;5469;48.574;8.768;2022-11-20T00:08:49;0.40;;;0.40;;
10831;SDS011;5469;48.574;8.768;2022-11-20T00:11:27;1.20;;;0.97;;
10831;SDS011;5469;48.574;8.768;2022-11-20T00:14:03;0.57;;;0.57;;
10831;SDS011;5469;48.574;8.768;2022-11-20T00:16:40;0.77;;;0.67;;
10831;SDS011;5469;48.574;8.768;2022-11-20T00:19:15;1.00;;;0.40;;
10831;SDS011;5469;48.574;8.768;2022-11-20T00:21:50;1.00;;;0.30;;
10831;SDS011;5469;48.574;8.768;2022-11-20T00:24:27;0.70;;;0.70;;
10831;SDS011;5469;48.574;8.768;2022-11-20T00:27:01;0.13;;;0.13;;
10831;SDS011;5469;48.574;8.768;2022-11-20T00:29:36;0.50;;;0.50;;
10831;SDS011;5469;48.574;8.768;2022-11-20T00:32:13;0.30;;;0.30;;
10831;SDS011;5469;48.574;8.768;2022-11-20T00:34:48;0.83;;;0.40;;
10831;SDS011;5469;48.574;8.768;2022-11-20T00:37:23;0.27;;;0.27;;
10831;SDS011;5469;48.574;8.768;2022-11-20T00:39:58;0.73;;;0.27;;
10831;SDS011;5469;48.574;8.768;2022-11-20T00:42:34;0.30;;;0.27;;
10831;SDS011;5469;48.574;8.768;2022-11-20T00:45:09;0.30;;;0.20;;
10831;SDS011;5469;48.574;8.768;2022-11-20T00:47:46;1.00;;;0.40;;
10831;SDS011;5469;48.574;8.768;2022-11-20T00:50:21;0.30;;;0.30;;
10831;SDS011;5469;48.574;8.768;2022-11-20T00:52:57;0.90;;;0.40;;
10831;SDS011;5469;48.574;8.768;2022-11-20T00:55:32;0.30;;;0.30;;
10831;SDS011;5469;48.574;8.768;2022-11-20T00:58:06;0.63;;;0.53;;
10831;SDS011;5469;48.574;8.768;2022-11-20T01:00:41;0.47;;;0.30;;
10831;SDS011;5469;48.574;8.768;2022-11-20T01:03:18;0.30;;;0.30;;
10831;SDS011;5469;48.574;8.768;2022-11-20T01:05:53;0.43;;;0.43;;
10831;SDS011;5469;48.574;8.768;2022-11-20T01:08:32;0.20;;;0.20;;
10831;SDS011;5469;48.574;8.768;2022-11-20T01:11:08;0.40;;;0.40;;
10831;SDS011;5469;48.574;8.768;2022-11-20T01:13:45;0.77;;;0.57;;
10831;SDS011;5469;48.574;8.768;2022-11-20T01:16:22;5.73;;;1.07;;
10831;SDS011;5469;48.574;8.768;2022-11-20T01:19:01;0.73;;;0.50;;
10831;SDS011;5469;48.574;8.768;2022-11-20T01:21:38;1.33;;;0.97;;
10831;SDS011;5469;48.574;8.768;2022-11-20T01:24:15;2.83;;;1.27;;
10831;SDS011;5469;48.574;8.768;2022-11-20T01:26:52;1.47;;;1.07;;
10831;SDS011;5469;48.574;8.768;2022-11-20T01:29:27;2.30;;;1.60;;
10831;SDS011;5469;48.574;8.768;2022-11-20T01:32:02;2.57;;;1.13;;
10831;SDS011;5469;48.574;8.768;2022-11-20T01:34:39;0.50;;;0.50;;
10831;SDS011;5469;48.574;8.768;2022-11-20T01:37:14;1.07;;;0.77;;
10831;SDS011;5469;48.574;8.768;2022-11-20T01:39:49;0.60;;;0.60;;
10831;SDS011;5469;48.574;8.768;2022-11-20T01:42:24;0.47;;;0.43;;
10831;SDS011;5469;48.574;8.768;2022-11-20T01:48:31;0.40;;;0.40;;
10831;SDS011;5469;48.574;8.768;2022-11-20T01:51:12;0.73;;;0.63;;
10831;SDS011;5469;48.574;8.768;2022-11-20T01:53:49;0.87;;;0.70;;
10831;SDS011;5469;48.574;8.768;2022-11-20T01:56:26;0.57;;;0.30;;
10831;SDS011;5469;48.574;8.768;2022-11-20T01:59:07;0.87;;;0.40;;
10831;SDS011;5469;48.574;8.768;2022-11-20T02:01:44;0.67;;;0.50;;
10831;SDS011;5469;48.574;8.768;2022-11-20T02:04:19;0.37;;;0.37;;
10831;SDS011;5469;48.574;8.768;2022-11-20T02:06:59;0.60;;;0.37;;
10831;SDS011;5469;48.574;8.768;2022-11-20T02:09:36;0.37;;;0.33;;
10831;SDS011;5469;48.574;8.768;2022-11-20T02:12:11;0.40;;;0.40;;
10831;SDS011;5469;48.574;8.768;2022-11-20T02:15:01;0.43;;;0.37;;
10831;SDS011;5469;48.574;8.768;2022-11-20T02:17:36;0.23;;;0.20;;
10831;SDS011;5469;48.574;8.768;2022-11-20T02:20:11;0.20;;;0.20;;
10831;SDS011;5469;48.574;8.768;2022-11-20T02:22:50;0.27;;;0.27;;
10831;SDS011;5469;48.574;8.768;2022-11-20T02:25:32;1.03;;;0.20;;
10831;SDS011;5469;48.574;8.768;2022-11-20T02:28:09;0.10;;;0.10;;
10831;SDS011;5469;48.574;8.768;2022-11-20T02:30:45;0.57;;;0.20;;
10831;SDS011;5469;48.574;8.768;2022-11-20T02:33:20;0.10;;;0.10;;
10831;SDS011;5469;48.574;8.768;2022-11-20T02:35:55;1.23;;;1.13;;
10831;SDS011;5469;48.574;8.768;2022-11-20T02:38:30;0.63;;;0.47;;
10831;SDS011;5469;48.574;8.768;2022-11-20T02:41:08;0.23;;;0.23;;
10831;SDS011;5469;48.574;8.768;2022-11-20T02:43:43;0.23;;;0.23;;
10831;SDS011;5469;48.574;8.768;2022-11-20T02:46:17;0.10;;;0.10;;
10831;SDS011;5469;48.574;8.768;2022-11-20T02:48:52;0.10;;;0.10;;
10831;SDS011;5469;48.574;8.768;2022-11-20T02:51:28;0.10;;;0.10;;
10831;SDS011;5469;48.574;8.768;2022-11-20T02:54:04;0.40;;;0.40;;
10831;SDS011;5469;48.574;8.768;2022-11-20T02:56:40;0.97;;;0.40;;
10831;SDS011;5469;48.574;8.768;2022-11-20T02:59:16;0.13;;;0.13;;
10831;SDS011;5469;48.574;8.768;2022-11-20T03:01:51;0.40;;;0.40;;
10831;SDS011;5469;48.574;8.768;2022-11-20T03:04:26;0.10;;;0.10;;
10831;SDS011;5469;48.574;8.768;2022-11-20T03:07:01;0.57;;;0.40;;
10831;SDS011;5469;48.574;8.768;2022-11-20T03:09:36;0.23;;;0.10;;
10831;SDS011;5469;48.574;8.768;2022-11-20T03:12:12;0.30;;;0.30;;
10831;SDS011;5469;48.574;8.768;2022-11-20T03:14:48;0.30;;;0.30;;
10831;SDS011;5469;48.574;8.768;2022-11-20T03:17:23;0.10;;;0.10;;
10831;SDS011;5469;48.574;8.768;2022-11-20T03:19:58;0.17;;;0.17;;
10831;SDS011;5469;48.574;8.768;2022-11-20T03:22:33;0.20;;;0.17;;
10831;SDS011;5469;48.574;8.768;2022-11-20T03:25:11;0.93;;;0.30;;
10831;SDS011;5469;48.574;8.768;2022-11-20T03:27:48;1.00;;;0.20;;
10831;SDS011;5469;48.574;8.768;2022-11-20T03:30:23;0.33;;;0.33;;
10831;SDS011;5469;48.574;8.768;2022-11-20T03:32:58;1.00;;;0.77;;
10831;SDS011;5469;48.574;8.768;2022-11-20T03:35:33;1.67;;;0.87;;
10831;SDS011;5469;48.574;8.768;2022-11-20T03:38:08;1.80;;;1.13;;
10831;SDS011;5469;48.574;8.768;2022-11-20T03:40:43;3.50;;;0.60;;
10831;SDS011;5469;48.574;8.768;2022-11-20T03:43:19;1.27;;;0.90;;
10831;SDS011;5469;48.574;8.768;2022-11-20T03:45:55;1.87;;;0.90;;
10831;SDS011;5469;48.574;8.768;2022-11-20T03:48:31;0.50;;;0.50;;
10831;SDS011;5469;48.574;8.768;2022-11-20T03:51:07;0.60;;;0.60;;
10831;SDS011;5469;48.574;8.768;2022-11-20T03:53:44;0.57;;;0.57;;
10831;SDS011;5469;48.574;8.768;2022-11-20T03:56:22;0.80;;;0.80;;
10831;SDS011;5469;48.574;8.768;2022-11-20T03:59:00;0.33;;;0.33;;
10831;SDS011;5469;48.574;8.768;2022-11-20T04:01:36;0.50;;;0.50;;
10831;SDS011;5469;48.574;8.768;2022-11-20T04:04:12;0.50;;;0.50;;
10831;SDS011;5469;48.574;8.768;2022-11-20T04:06:47;0.67;;;0.67;;
10831;SDS011;5469;48.574;8.768;2022-11-20T04:09:22;0.27;;;0.27;;
10831;SDS011;5469;48.574;8.768;2022-11-20T04:11:57;0.17;;;0.17;;
10831;SDS011;5469;48.574;8.768;2022-11-20T04:14:33;0.50;;;0.50;;
10831;SDS011;5469;48.574;8.768;2022-11-20T04:17:08;0.50;;;0.50;;
10831;SDS011;5469;48.574;8.768;2022-11-20T04:19:43;0.47;;;0.47;;
10831;SDS011;5469;48.574;8.768;2022-11-20T04:22:18;0.33;;;0.30;;
10831;SDS011;5469;48.574;8.768;2022-11-20T04:24:53;0.50;;;0.40;;
10831;SDS011;5469;48.574;8.768;2022-11-20T04:27:28;0.53;;;0.47;;
10831;SDS011;5469;48.574;8.768;2022-11-20T04:30:08;0.20;;;0.20;;
10831;SDS011;5469;48.574;8.768;2022-11-20T04:32:44;0.60;;;0.50;;
10831;SDS011;5469;48.574;8.768;2022-11-20T04:35:19;0.43;;;0.30;;
10831;SDS011;5469;48.574;8.768;2022-11-20T04:37:54;0.73;;;0.30;;
10831;SDS011;5469;48.574;8.768;2022-11-20T04:40:29;0.20;;;0.20;;
10831;SDS011;5469;48.574;8.768;2022-11-20T04:43:04;0.30;;;0.27;;
10831;SDS011;5469;48.574;8.768;2022-11-20T04:45:41;0.20;;;0.20;;
10831;SDS011;5469;48.574;8.768;2022-11-20T04:48:23;0.23;;;0.23;;
10831;SDS011;5469;48.574;8.768;2022-11-20T04:51:02;0.17;;;0.17;;
10831;SDS011;5469;48.574;8.768;2022-11-20T04:53:37;0.93;;;0.20;;
10831;SDS011;5469;48.574;8.768;2022-11-20T04:56:13;0.20;;;0.20;;
10831;SDS011;5469;48.574;8.768;2022-11-20T04:58:49;0.30;;;0.30;;
10831;SDS011;5469;48.574;8.768;2022-11-20T05:01:26;0.23;;;0.10;;
10831;SDS011;5469;48.574;8.768;2022-11-20T05:04:01;0.17;;;0.17;;
10831;SDS011;5469;48.574;8.768;2022-11-20T05:06:37;0.40;;;0.30;;
10831;SDS011;5469;48.574;8.768;2022-11-20T05:09:13;0.20;;;0.20;;
10831;SDS011;5469;48.574;8.768;2022-11-20T05:11:48;0.17;;;0.10;;
10831;SDS011;5469;48.574;8.768;2022-11-20T05:14:23;0.10;;;0.10;;
10831;SDS011;5469;48.574;8.768;2022-11-20T05:16:59;0.17;;;0.13;;
10831;SDS011;5469;48.574;8.768;2022-11-20T05:19:34;0.00;;;0.00;;
10831;SDS011;5469;48.574;8.768;2022-11-20T05:22:10;0.20;;;0.10;;
10831;SDS011;5469;48.574;8.768;2022-11-20T05:24:45;0.20;;;0.20;;
10831;SDS011;5469;48.574;8.768;2022-11-20T05:27:20;0.60;;;0.20;;
10831;SDS011;5469;48.574;8.768;2022-11-20T05:29:56;0.53;;;0.50;;
10831;SDS011;5469;48.574;8.768;2022-11-20T05:32:32;0.37;;;0.10;;
10831;SDS011;5469;48.574;8.768;2022-11-20T05:35:07;0.20;;;0.20;;
10831;SDS011;5469;48.574;8.768;2022-11-20T05:37:43;0.00;;;0.00;;
10831;SDS011;5469;48.574;8.768;2022-11-20T05:40:18;0.90;;;0.70;;
10831;SDS011;5469;48.574;8.768;2022-11-20T05:42:53;0.10;;;0.10;;
10831;SDS011;5469;48.574;8.768;2022-11-20T05:45:28;0.30;;;0.30;;
10831;SDS011;5469;48.574;8.768;2022-11-20T05:48:05;0.03;;;0.03;;
10831;SDS011;5469;48.574;8.768;2022-11-20T05:50:40;1.17;;;0.83;;
10831;SDS011;5469;48.574;8.768;2022-11-20T05:53:15;0.20;;;0.20;;
10831;SDS011;5469;48.574;8.768;2022-11-20T05:55:55;0.20;;;0.20;;
10831;SDS011;5469;48.574;8.768;2022-11-20T05:58:32;0.30;;;0.30;;
10831;SDS011;5469;48.574;8.768;2022-11-20T06:01:09;0.07;;;0.07;;
10831;SDS011;5469;48.574;8.768;2022-11-20T06:03:47;0.47;;;0.47;;
10831;SDS011;5469;48.574;8.768;2022-11-20T06:06:23;0.17;;;0.17;;
10831;SDS011;5469;48.574;8.768;2022-11-20T06:08:57;0.93;;;0.43;;
10831;SDS011;5469;48.574;8.768;2022-11-20T06:11:32;0.07;;;0.07;;
10831;SDS011;5469;48.574;8.768;2022-11-20T06:14:07;0.00;;;0.00;;
10831;SDS011;5469;48.574;8.768;2022-11-20T06:16:42;0.40;;;0.40;;
10831;SDS011;5469;48.574;8.768;2022-11-20T06:19:18;0.00;;;0.00;;
10831;SDS011;5469;48.574;8.768;2022-11-20T06:21:53;0.10;;;0.10;;
10831;SDS011;5469;48.574;8.768;2022-11-20T06:24:28;0.40;;;0.40;;
10831;SDS011;5469;48.574;8.768;2022-11-20T06:27:03;0.80;;;0.30;;
10831;SDS011;5469;48.574;8.768;2022-11-20T06:29:38;0.10;;;0.10;;
10831;SDS011;5469;48.574;8.768;2022-11-20T06:32:13;0.93;;;0.50;;
10831;SDS011;5469;48.574;8.768;2022-11-20T06:34:49;0.10;;;0.10;;
10831;SDS011;5469;48.574;8.768;2022-11-20T06:37:24;0.30;;;0.30;;
10831;SDS011;5469;48.574;8.768;2022-11-20T06:40:00;0.20;;;0.20;;
10831;SDS011;5469;48.574;8.768;2022-11-20T06:42:35;0.30;;;0.30;;
10831;SDS011;5469;48.574;8.768;2022-11-20T06:45:10;0.30;;;0.30;;
10831;SDS011;5469;48.574;8.768;2022-11-20T06:47:45;0.30;;;0.30;;
10831;SDS011;5469;48.574;8.768;2022-11-20T06:50:21;1.03;;;0.67;;
10831;SDS011;5469;48.574;8.768;2022-11-20T06:52:59;0.87;;;0.53;;
10831;SDS011;5469;48.574;8.768;2022-11-20T06:55:35;0.93;;;0.87;;
10831;SDS011;5469;48.574;8.768;2022-11-20T06:58:15;0.50;;;0.50;;
10831;SDS011;5469;48.574;8.768;2022-11-20T07:00:51;2.30;;;1.43;;
10831;SDS011;5469;48.574;8.768;2022-11-20T07:03:26;3.10;;;1.60;;
10831;SDS011;5469;48.574;8.768;2022-11-20T07:06:02;1.63;;;1.53;;
10831;SDS011;5469;48.574;8.768;2022-11-20T07:08:38;0.67;;;0.67;;
10831;SDS011;5469;48.574;8.768;2022-11-20T07:11:14;1.60;;;1.03;;
10831;SDS011;5469;48.574;8.768;2022-11-20T07:13:49;0.60;;;0.60;;
10831;SDS011;5469;48.574;8.768;2022-11-20T07:16:23;0.90;;;0.77;;
10831;SDS011;5469;48.574;8.768;2022-11-20T07:18:58;0.87;;;0.50;;
10831;SDS011;5469;48.574;8.768;2022-11-20T07:21:36;1.13;;;0.50;;
10831;SDS011;5469;48.574;8.768;2022-11-20T07:24:11;0.27;;;0.27;;
10831;SDS011;5469;48.574;8.768;2022-11-20T07:26:46;0.83;;;0.50;;
10831;SDS011;5469;48.574;8.768;2022-11-20T07:29:21;0.30;;;0.30;;
10831;SDS011;5469;48.574;8.768;2022-11-20T07:31:57;0.27;;;0.27;;
10831;SDS011;5469;48.574;8.768;2022-11-20T07:34:32;0.20;;;0.20;;
10831;SDS011;5469;48.574;8.768;2022-11-20T07:37:08;0.33;;;0.23;;
10831;SDS011;5469;48.574;8.768;2022-11-20T07:39:43;0.30;;;0.30;;
10831;SDS011;5469;48.574;8.768;2022-11-20T07:42:18;3.03;;;0.43;;
10831;SDS011;5469;48.574;8.768;2022-11-20T07:44:53;0.40;;;0.40;;
10831;SDS011;5469;48.574;8.768;2022-11-20T07:47:28;0.27;;;0.27;;
10831;SDS011;5469;48.574;8.768;2022-11-20T07:50:07;0.43;;;0.43;;
10831;SDS011;5469;48.574;8.768;2022-11-20T07:52:44;0.13;;;0.13;;
10831;SDS011;5469;48.574;8.768;2022-11-20T07:55:20;0.67;;;0.50;;
10831;SDS011;5469;48.574;8.768;2022-11-20T07:57:55;0.10;;;0.10;;
10831;SDS011;5469;48.574;8.768;2022-11-20T08:00:30;0.20;;;0.20;;
10831;SDS011;5469;48.574;8.768;2022-11-20T08:03:06;0.43;;;0.43;;
10831;SDS011;5469;48.574;8.768;2022-11-20T08:05:42;0.67;;;0.20;;
10831;SDS011;5469;48.574;8.768;2022-11-20T08:08:19;0.20;;;0.20;;
10831;SDS011;5469;48.574;8.768;2022-11-20T08:10:56;0.20;;;0.20;;
10831;SDS011;5469;48.574;8.768;2022-11-20T08:13:52;0.27;;;0.27;;
10831;SDS011;5469;48.574;8.768;2022-11-20T08:16:45;4.17;;;0.50;;
10831;SDS011;5469;48.574;8.768;2022-11-20T08:19:22;0.30;;;0.30;;
10831;SDS011;5469;48.574;8.768;2022-11-20T08:21:56;0.27;;;0.27;;
10831;SDS011;5469;48.574;8.768;2022-11-20T08:24:33;0.10;;;0.10;;
10831;SDS011;5469;48.574;8.768;2022-11-20T08:27:08;0.27;;;0.27;;
10831;SDS011;5469;48.574;8.768;2022-11-20T08:29:43;0.30;;;0.30;;
10831;SDS011;5469;48.574;8.768;2022-11-20T08:32:18;0.20;;;0.20;;
10831;SDS011;5469;48.574;8.768;2022-11-20T08:34:54;0.20;;;0.20;;
10831;SDS011;5469;48.574;8.768;2022-11-20T08:37:29;0.20;;;0.20;;
10831;SDS011;5469;48.574;8.768;2022-11-20T08:40:07;0.30;;;0.30;;
10831;SDS011;5469;48.574;8.768;2022-11-20T08:42:47;0.47;;;0.47;;
10831;SDS011;5469;48.574;8.768;2022-11-20T08:45:23;0.70;;;0.30;;
10831;SDS011;5469;48.574;8.768;2022-11-20T08:47:59;0.13;;;0.13;;
10831;SDS011;5469;48.574;8.768;2022-11-20T08:50:35;0.40;;;0.40;;
10831;SDS011;5469;48.574;8.768;2022-11-20T08:53:10;0.20;;;0.20;;
10831;SDS011;5469;48.574;8.768;2022-11-20T08:55:48;0.33;;;0.10;;
10831;SDS011;5469;48.574;8.768;2022-11-20T08:58:23;0.20;;;0.20;;
10831;SDS011;5469;48.574;8.768;2022-11-20T09:00:59;0.10;;;0.10;;
10831;SDS011;5469;48.574;8.768;2022-11-20T09:03:35;0.30;;;0.20;;
10831;SDS011;5469;48.574;8.768;2022-11-20T09:06:10;0.43;;;0.20;;
10831;SDS011;5469;48.574;8.768;2022-11-20T09:08:45;0.90;;;0.30;;
10831;SDS011;5469;48.574;8.768;2022-11-20T09:11:25;0.20;;;0.20;;
10831;SDS011;5469;48.574;8.768;2022-11-20T09:14:00;1.80;;;0.87;;
10831;SDS011;5469;48.574;8.768;2022-11-20T09:16:36;0.30;;;0.30;;
10831;SDS011;5469;48.574;8.768;2022-11-20T09:19:11;0.20;;;0.20;;
10831;SDS011;5469;48.574;8.768;2022-11-20T09:21:47;0.50;;;0.43;;
10831;SDS011;5469;48.574;8.768;2022-11-20T09:24:22;0.17;;;0.17;;
10831;SDS011;5469;48.574;8.768;2022-11-20T09:26:58;1.20;;;0.50;;
10831;SDS011;5469;48.574;8.768;2022-11-20T09:29:36;0.10;;;0.10;;
10831;SDS011;5469;48.574;8.768;2022-11-20T09:32:11;1.60;;;0.20;;
10831;SDS011;5469;48.574;8.768;2022-11-20T09:34:47;1.80;;;0.40;;
10831;SDS011;5469;48.574;8.768;2022-11-20T09:37:22;0.13;;;0.13;;
10831;SDS011;5469;48.574;8.768;2022-11-20T09:39:58;0.43;;;0.20;;
10831;SDS011;5469;48.574;8.768;2022-11-20T09:42:36;0.30;;;0.20;;
10831;SDS011;5469;48.574;8.768;2022-11-20T09:45:20;0.43;;;0.43;;
10831;SDS011;5469;48.574;8.768;2022-11-20T09:48:04;0.57;;;0.40;;
10831;SDS011;5469;48.574;8.768;2022-11-20T09:50:48;1.03;;;0.30;;
10831;SDS011;5469;48.574;8.768;2022-11-20T09:53:30;1.20;;;0.63;;
10831;SDS011;5469;48.574;8.768;2022-11-20T09:56:08;0.93;;;0.30;;
10831;SDS011;5469;48.574;8.768;2022-11-20T09:58:47;0.40;;;0.40;;
10831;SDS011;5469;48.574;8.768;2022-11-20T10:01:26;0.20;;;0.20;;
10831;SDS011;5469;48.574;8.768;2022-11-20T10:04:04;1.17;;;0.20;;
10831;SDS011;5469;48.574;8.768;2022-11-20T10:06:47;0.10;;;0.10;;
10831;SDS011;5469;48.574;8.768;2022-11-20T10:09:29;0.07;;;0.07;;
10831;SDS011;5469;48.574;8.768;2022-11-20T10:12:12;0.37;;;0.20;;
10831;SDS011;5469;48.574;8.768;2022-11-20T10:15:00;0.07;;;0.07;;
10831;SDS011;5469;48.574;8.768;2022-11-20T10:17:52;0.07;;;0.07;;
10831;SDS011;5469;48.574;8.768;2022-11-20T10:20:37;0.00;;;0.00;;
10831;SDS011;5469;48.574;8.768;2022-11-20T10:23:27;0.00;;;0.00;;
10831;SDS011;5469;48.574;8.768;2022-11-20T10:26:14;0.10;;;0.10;;
10831;SDS011;5469;48.574;8.768;2022-11-20T10:28:58;0.10;;;0.03;;
10831;SDS011;5469;48.574;8.768;2022-11-20T10:31:43;0.00;;;0.00;;
10831;SDS011;5469;48.574;8.768;2022-11-20T10:34:22;0.20;;;0.20;;
10831;SDS011;5469;48.574;8.768;2022-11-20T10:37:02;0.13;;;0.13;;
10831;SDS011;5469;48.574;8.768;2022-11-20T10:39:45;0.37;;;0.10;;
10831;SDS011;5469;48.574;8.768;2022-11-20T10:42:30;0.10;;;0.10;;
10831;SDS011;5469;48.574;8.768;2022-11-20T10:45:13;2.03;;;0.60;;
10831;SDS011;5469;48.574;8.768;2022-11-20T10:47:56;0.30;;;0.30;;
10831;SDS011;5469;48.574;8.768;2022-11-20T10:53:56;0.33;;;0.30;;
10831;SDS011;5469;48.574;8.768;2022-11-20T10:56:38;0.97;;;0.50;;
10831;SDS011;5469;48.574;8.768;2022-11-20T10:59:25;1.40;;;0.73;;
10831;SDS011;5469;48.574;8.768;2022-11-20T11:02:15;0.60;;;0.60;;
10831;SDS011;5469;48.574;8.768;2022-11-20T11:04:54;0.50;;;0.20;;
10831;SDS011;5469;48.574;8.768;2022-11-20T11:07:30;0.83;;;0.30;;
10831;SDS011;5469;48.574;8.768;2022-11-20T11:10:13;0.70;;;0.30;;
10831;SDS011;5469;48.574;8.768;2022-11-20T11:12:49;0.20;;;0.20;;
10831;SDS011;5469;48.574;8.768;2022-11-20T11:15:25;0.40;;;0.40;;
10831;SDS011;5469;48.574;8.768;2022-11-20T11:18:02;0.93;;;0.40;;
10831;SDS011;5469;48.574;8.768;2022-11-20T11:20:49;0.30;;;0.30;;
10831;SDS011;5469;48.574;8.768;2022-11-20T11:23:30;1.00;;;0.33;;
10831;SDS011;5469;48.574;8.768;2022-11-20T11:26:19;0.20;;;0.10;;
10831;SDS011;5469;48.574;8.768;2022-11-20T11:28:57;0.67;;;0.47;;
10831;SDS011;5469;48.574;8.768;2022-11-20T11:31:34;0.27;;;0.27;;
10831;SDS011;5469;48.574;8.768;2022-11-20T11:34:11;1.90;;;0.90;;
10831;SDS011;5469;48.574;8.768;2022-11-20T11:36:52;0.63;;;0.23;;
10831;SDS011;5469;48.574;8.768;2022-11-20T11:39:32;0.20;;;0.20;;
10831;SDS011;5469;48.574;8.768;2022-11-20T11:42:13;0.10;;;0.10;;
10831;SDS011;5469;48.574;8.768;2022-11-20T11:44:50;0.43;;;0.43;;
10831;SDS011;5469;48.574;8.768;2022-11-20T11:47:37;2.77;;;0.70;;
10831;SDS011;5469;48.574;8.768;2022-11-20T11:50:19;2.50;;;0.93;;
10831;SDS011;5469;48.574;8.768;2022-11-20T11:53:07;1.43;;;1.17;;
10831;SDS011;5469;48.574;8.768;2022-11-20T11:55:49;2.47;;;0.80;;
10831;SDS011;5469;48.574;8.768;2022-11-20T11:58:34;1.00;;;0.93;;
10831;SDS011;5469;48.574;8.768;2022-11-20T12:01:20;2.10;;;1.00;;
10831;SDS011;5469;48.574;8.768;2022-11-20T12:04:02;2.40;;;1.57;;
10831;SDS011;5469;48.574;8.768;2022-11-20T12:06:51;2.50;;;0.77;;
10831;SDS011;5469;48.574;8.768;2022-11-20T12:09:35;1.17;;;0.70;;
10831;SDS011;5469;48.574;8.768;2022-11-20T12:12:17;2.10;;;0.73;;
10831;SDS011;5469;48.574;8.768;2022-11-20T12:14:55;2.10;;;0.90;;
10831;SDS011;5469;48.574;8.768;2022-11-20T12:17:31;1.27;;;0.83;;
10831;SDS011;5469;48.574;8.768;2022-11-20T12:20:11;5.27;;;0.80;;
10831;SDS011;5469;48.574;8.768;2022-11-20T12:22:47;2.50;;;0.60;;
10831;SDS011;5469;48.574;8.768;2022-11-20T12:25:30;4.07;;;1.60;;
10831;SDS011;5469;48.574;8.768;2022-11-20T12:28:27;4.20;;;1.13;;
10831;SDS011;5469;48.574;8.768;2022-11-20T12:31:13;3.13;;;1.00;;
10831;SDS011;5469;48.574;8.768;2022-11-20T12:34:07;1.47;;;0.77;;
10831;SDS011;5469;48.574;8.768;2022-11-20T12:36:53;4.40;;;1.00;;
10831;SDS011;5469;48.574;8.768;2022-11-20T12:39:40;3.43;;;1.00;;
10831;SDS011;5469;48.574;8.768;2022-11-20T12:42:27;3.60;;;1.10;;
10831;SDS011;5469;48.574;8.768;2022-11-20T12:45:48;3.50;;;0.63;;
10831;SDS011;5469;48.574;8.768;2022-11-20T12:48:50;6.17;;;1.27;;
10831;SDS011;5469;48.574;8.768;2022-11-20T12:51:44;2.20;;;0.60;;
10831;SDS011;5469;48.574;8.768;2022-11-20T12:57:38;2.60;;;0.93;;
10831;SDS011;5469;48.574;8.768;2022-11-20T13:00:21;2.93;;;1.37;;
10831;SDS011;5469;48.574;8.768;2022-11-20T13:03:09;6.00;;;2.20;;
10831;SDS011;5469;48.574;8.768;2022-11-20T13:05:59;4.07;;;1.53;;
10831;SDS011;5469;48.574;8.768;2022-11-20T13:08:38;5.00;;;1.47;;
10831;SDS011;5469;48.574;8.768;2022-11-20T13:11:17;6.37;;;1.60;;
10831;SDS011;5469;48.574;8.768;2022-11-20T13:14:07;2.80;;;0.93;;
10831;SDS011;5469;48.574;8.768;2022-11-20T13:16:49;1.67;;;0.60;;
10831;SDS011;5469;48.574;8.768;2022-11-20T13:19:28;1.67;;;0.77;;
10831;SDS011;5469;48.574;8.768;2022-11-20T13:22:05;0.50;;;0.50;;
10831;SDS011;5469;48.574;8.768;2022-11-20T13:24:49;3.03;;;0.43;;
10831;SDS011;5469;48.574;8.768;2022-11-20T13:27:25;0.20;;;0.13;;
10831;SDS011;5469;48.574;8.768;2022-11-20T13:30:12;1.77;;;0.40;;
10831;SDS011;5469;48.574;8.768;2022-11-20T13:32:51;0.20;;;0.20;;
10831;SDS011;5469;48.574;8.768;2022-11-20T13:35:30;0.20;;;0.20;;
10831;SDS011;5469;48.574;8.768;2022-11-20T13:38:09;0.50;;;0.20;;
10831;SDS011;5469;48.574;8.768;2022-11-20T13:40:50;1.07;;;0.37;;
10831;SDS011;5469;48.574;8.768;2022-11-20T13:43:28;0.57;;;0.33;;
10831;SDS011;5469;48.574;8.768;2022-11-20T13:46:12;0.33;;;0.20;;
10831;SDS011;5469;48.574;8.768;2022-11-20T13:48:48;1.40;;;0.50;;
10831;SDS011;5469;48.574;8.768;2022-11-20T13:51:28;0.20;;;0.20;;
10831;SDS011;5469;48.574;8.768;2022-11-20T13:54:25;0.10;;;0.10;;
10831;SDS011;5469;48.574;8.768;2022-11-20T13:57:26;0.23;;;0.23;;
10831;SDS011;5469;48.574;8.768;2022-11-20T14:00:20;0.10;;;0.10;;
10831;SDS011;5469;48.574;8.768;2022-11-20T14:03:01;0.30;;;0.30;;
10831;SDS011;5469;48.574;8.768;2022-11-20T14:05:46;0.70;;;0.43;;
10831;SDS011;5469;48.574;8.768;2022-11-20T14:08:27;0.20;;;0.20;;
10831;SDS011;5469;48.574;8.768;2022-11-20T14:11:13;0.20;;;0.20;;
10831;SDS011;5469;48.574;8.768;2022-11-20T14:13:55;0.20;;;0.20;;
10831;SDS011;5469;48.574;8.768;2022-11-20T14:16:32;0.20;;;0.20;;
10831;SDS011;5469;48.574;8.768;2022-11-20T14:19:22;0.10;;;0.10;;
10831;SDS011;5469;48.574;8.768;2022-11-20T14:22:09;0.10;;;0.10;;
10831;SDS011;5469;48.574;8.768;2022-11-20T14:25:00;0.10;;;0.10;;
10831;SDS011;5469;48.574;8.768;2022-11-20T14:27:36;1.13;;;0.27;;
10831;SDS011;5469;48.574;8.768;2022-11-20T14:30:14;0.30;;;0.30;;
10831;SDS011;5469;48.574;8.768;2022-11-20T14:32:53;0.20;;;0.20;;
10831;SDS011;5469;48.574;8.768;2022-11-20T14:35:33;0.40;;;0.40;;
10831;SDS011;5469;48.574;8.768;2022-11-20T14:38:14;0.23;;;0.23;;
10831;SDS011;5469;48.574;8.768;2022-11-20T14:40:53;0.97;;;0.40;;
10831;SDS011;5469;48.574;8.768;2022-11-20T14:43:38;0.40;;;0.40;;
10831;SDS011;5469;48.574;8.768;2022-11-20T14:46:17;0.20;;;0.20;;
10831;SDS011;5469;48.574;8.768;2022-11-20T14:48:54;0.40;;;0.20;;
10831;SDS011;5469;48.574;8.768;2022-11-20T14:51:34;1.43;;;0.57;;
10831;SDS011;5469;48.574;8.768;2022-11-20T14:54:14;0.50;;;0.50;;
10831;SDS011;5469;48.574;8.768;2022-11-20T14:56:53;0.40;;;0.40;;
10831;SDS011;5469;48.574;8.768;2022-11-20T14:59:30;0.20;;;0.20;;
10831;SDS011;5469;48.574;8.768;2022-11-20T15:02:08;0.47;;;0.37;;
10831;SDS011;5469;48.574;8.768;2022-11-20T15:04:46;0.60;;;0.60;;
10831;SDS011;5469;48.574;8.768;2022-11-20T15:07:24;1.00;;;0.47;;
10831;SDS011;5469;48.574;8.768;2022-11-20T15:10:02;0.73;;;0.30;;
10831;SDS011;5469;48.574;8.768;2022-11-20T15:12:40;0.23;;;0.20;;
10831;SDS011;5469;48.574;8.768;2022-11-20T15:15:21;0.20;;;0.20;;
10831;SDS011;5469;48.574;8.768;2022-11-20T15:18:03;0.47;;;0.23;;
10831;SDS011;5469;48.574;8.768;2022-11-20T15:20:44;0.60;;;0.50;;
10831;SDS011;5469;48.574;8.768;2022-11-20T15:23:22;0.30;;;0.10;;
10831;SDS011;5469;48.574;8.768;2022-11-20T15:25:59;0.40;;;0.30;;
10831;SDS011;5469;48.574;8.768;2022-11-20T15:28:37;0.50;;;0.50;;
10831;SDS011;5469;48.574;8.768;2022-11-20T15:31:15;0.57;;;0.57;;
10831;SDS011;5469;48.574;8.768;2022-11-20T15:33:51;0.33;;;0.33;;
10831;SDS011;5469;48.574;8.768;2022-11-20T15:36:26;0.20;;;0.20;;
10831;SDS011;5469;48.574;8.768;2022-11-20T15:39:03;3.60;;;0.30;;
10831;SDS011;5469;48.574;8.768;2022-11-20T15:41:39;0.27;;;0.27;;
10831;SDS011;5469;48.574;8.768;2022-11-20T15:44:14;0.50;;;0.40;;
10831;SDS011;5469;48.574;8.768;2022-11-20T15:46:50;0.47;;;0.40;;
10831;SDS011;5469;48.574;8.768;2022-11-20T15:49:27;0.30;;;0.30;;
10831;SDS011;5469;48.574;8.768;2022-11-20T15:52:02;0.43;;;0.20;;
10831;SDS011;5469;48.574;8.768;2022-11-20T15:54:38;0.30;;;0.30;;
10831;SDS011;5469;48.574;8.768;2022-11-20T15:57:13;0.50;;;0.50;;
10831;SDS011;5469;48.574;8.768;2022-11-20T15:59:48;0.17;;;0.13;;
10831;SDS011;5469;48.574;8.768;2022-11-20T16:02:23;0.73;;;0.33;;
10831;SDS011;5469;48.574;8.768;2022-11-20T16:04:58;0.10;;;0.10;;
10831;SDS011;5469;48.574;8.768;2022-11-20T16:07:33;0.40;;;0.40;;
10831;SDS011;5469;48.574;8.768;2022-11-20T16:10:10;0.10;;;0.10;;
10831;SDS011;5469;48.574;8.768;2022-11-20T16:12:45;0.23;;;0.23;;
10831;SDS011;5469;48.574;8.768;2022-11-20T16:15:37;0.73;;;0.10;;
10831;SDS011;5469;48.574;8.768;2022-11-20T16:18:19;0.87;;;0.40;;